Itanagra, Brazil
Current Conditions -  °F | °C
As of 11:20 PM on Wednesday 17 Dec 2014 (Local Time) from SBSV Reporting Station
Rain Showers Rain Showers  
Wind Chill: 73°   Ceiling: 7000
Heat Index: 73°   Visibility: 5mi
Dew Point: 70°   Wind: 5mph
Humidity: 88%   Direction: 80°E
Pressure: 29.88"   Gusts: NA
Location:  12.26°S, 38.04°W
Report Text: SBSV 180220Z 08004KT 8000 VCSH SCT007 SCT015 FEW020TCU BKN07023/21 Q1012
Loading
Personal Weather Stations






























Interactive Weather Map New forecast layout! Learn more

10-Day Weather Forecast

Advertisements
Track Severe Weather on mobile